YXSC weather

Scone Hospital Helipad
Scone, New South Wales, Australia

Public forecast

Using degrees Celsius for public forecast. Weather courtesy of forecast.io.

METAR (pilot weather report)

Closest report is Tamworth Airport, 58.0 nm (107.5 km) N. Retrieved 2019/04/21 09:30 UTC (23 minutes ago):

YSTW 210930Z AUTO 12010KT 9999 // NCD 23/09 Q1021 RF00.0/000.0

TAF (pilot weather forecast)

Closest forecast is Tamworth Airport, 58.0 nm (107.5 km) N. Retrieved 2019/04/21 06:36 UTC (3 hours ago):

TAF TAF YSTW 210449Z 2106/2124 13008KT CAVOK